Aeroporto :
LOGIN :

Iscrizione | Disclaimer

   EN    FR    IT 

 










Sommario :    VFR   VFR Marginale   IFR   IFR Intensivo   IFR Molto Intensivo
Visibilità : 
Base nubi : 
>= 8 km
>= 3000ft
5 / 8 km
1000 / 3000 ft
1500m / 5 km
500 / 1000 ft
800 / 1500m
200 / 500 ft
< 800m
< 200 ft
Simboli :   Temporali  Nebbia  Neve Forte  Precipitazioni Forti  Vento > 20 kt
SIGMETs :   Varie  Temporali  Ghiacco  Turbolenza  Onda orograficha  Ceneri Vulcaniche






- Altitudine del aeroporto : 59 ft
- Codice IATA : TSF


LIPH - Treviso

ULTIMO METAR :
  • 051350Z 25005KT 180V280 CAVOK 29/16 Q1005

METARs OBSOLETI :
  • 051320Z 21004KT 130V260 CAVOK 29/16 Q1005
  • 051250Z 22006KT 190V250 CAVOK 28/15 Q1005
  • 051220Z 21008KT CAVOK 27/16 Q1005
  • 051150Z 21006KT 160V260 CAVOK 27/16 Q1005
  • 051120Z 26007KT 210V320 CAVOK 27/16 Q1005

TAF TAF LIPH
Valido dal 05 a 12 ore il 06 a 12 ore UTC


051100Z 0512/0612 24007KT CAVOK
BECMG 0515/0517 16010KT
BECMG 0519/0521 03007KT
TEMPO 0519/0524 4000 TSRA



MetMap, La meteo Aeronautica in un colpo d'occhio ! - Copyright ORBIFLY Dicembre 2007 - Disclaimer

ORBIFLY MET'MAP TEAM :

Programmazione e sviluppo : Alexandra Zaïnal
Concezione : Baudouin d'Aumeries
Aiuto per la programmazione : Marc-Olivier Méhu
Supporto tecnico e logistico : Manuel Goepfert
Aiuto per la traduzione : Arnaldo La Scala

Contatto : metmap@orbifly.com




FONTI E CREDITI :

   NOAA